Time;durP1;ratioP1;P1;durP2;ratioP2;P2;SDS_P1;SDS_P2;PMS_P1;PMS_P2;Temp;Humidity;BMP_temperature;BMP_pressure;BME280_temperature;BME280_humidity;BME280_pressure;Samples;Min_cycle;Max_cycle;Signal;HPM_P1;HPM_P2
2021/12/19 00:01:26;;;;;;;0.10;0.10;;;;;;;;;;5024507;28;20213;-75
2021/12/19 00:04:00;;;;;;;0.10;0.10;;;;;;;;;;5024595;28;20225;-76
2021/12/19 00:09:11;;;;;;;0.10;0.10;;;;;;;;;;5044085;28;20235;-75
2021/12/19 00:11:37;;;;;;;0.30;0.30;;;;;;;;;;5044191;28;20247;-75
2021/12/19 00:14:05;;;;;;;1.47;1.47;;;;;;;;;;5043078;28;20204;-76
2021/12/19 00:16:32;;;;;;;0.10;0.10;;;;;;;;;;5043742;28;20228;-75
2021/12/19 00:18:59;;;;;;;0.10;0.10;;;;;;;;;;5044159;28;20388;-75
2021/12/19 00:21:26;;;;;;;2.63;2.20;;;;;;;;;;5044047;28;20212;-76
2021/12/19 00:23:53;;;;;;;0.53;0.53;;;;;;;;;;5043899;28;20274;-76
2021/12/19 00:26:19;;;;;;;0.20;0.20;;;;;;;;;;5043325;28;20361;-76
2021/12/19 00:28:47;;;;;;;0.10;0.10;;;;;;;;;;5030691;28;20434;-75
2021/12/19 00:31:14;;;;;;;0.10;0.10;;;;;;;;;;5023656;28;20230;-76
2021/12/19 00:33:41;;;;;;;0.10;0.10;;;;;;;;;;5023738;28;20233;-69
2021/12/19 00:36:08;;;;;;;0.10;0.10;;;;;;;;;;5032332;28;20224;-69
2021/12/19 00:38:35;;;;;;;0.10;0.10;;;;;;;;;;5043671;28;20208;-69
2021/12/19 00:41:01;;;;;;;0.10;0.10;;;;;;;;;;5043298;28;20262;-69
2021/12/19 00:43:35;;;;;;;0.10;0.10;;;;;;;;;;5043317;28;20250;-70
2021/12/19 00:46:06;;;;;;;0.13;0.13;;;;;;;;;;5037693;28;20201;-68
2021/12/19 00:48:33;;;;;;;0.10;0.10;;;;;;;;;;5032955;28;20204;-69
2021/12/19 00:51:00;;;;;;;0.10;0.10;;;;;;;;;;5043453;28;20269;-69
2021/12/19 00:53:26;;;;;;;0.20;0.20;;;;;;;;;;5043237;28;20279;-69
2021/12/19 00:55:52;;;;;;;0.20;0.20;;;;;;;;;;5043377;28;20433;-68
2021/12/19 00:58:18;;;;;;;0.10;0.10;;;;;;;;;;5043244;28;20204;-69
2021/12/19 01:00:45;;;;;;;0.10;0.10;;;;;;;;;;5043234;28;20469;-69
2021/12/19 01:03:11;;;;;;;0.10;0.10;;;;;;;;;;5038816;28;20213;-69
2021/12/19 01:05:41;;;;;;;0.17;0.17;;;;;;;;;;5023154;28;20247;-70
2021/12/19 01:08:07;;;;;;;0.10;0.10;;;;;;;;;;5029096;28;20207;-69
2021/12/19 01:10:34;;;;;;;0.10;0.10;;;;;;;;;;5043382;28;20398;-69
2021/12/19 01:13:02;;;;;;;0.10;0.10;;;;;;;;;;5042853;28;20256;-70
2021/12/19 01:15:29;;;;;;;0.20;0.20;;;;;;;;;;5042735;28;20276;-69
2021/12/19 01:17:55;;;;;;;0.10;0.10;;;;;;;;;;5042515;28;20208;-69
2021/12/19 01:20:22;;;;;;;0.10;0.10;;;;;;;;;;5042282;28;20259;-70
2021/12/19 01:22:51;;;;;;;0.20;0.20;;;;;;;;;;5042858;28;20209;-69
2021/12/19 01:25:17;;;;;;;0.53;0.40;;;;;;;;;;5042752;28;20402;-70
2021/12/19 01:27:44;;;;;;;0.10;0.10;;;;;;;;;;5042423;28;20394;-69
2021/12/19 01:30:11;;;;;;;0.10;0.10;;;;;;;;;;5042690;28;20236;-68
2021/12/19 01:32:40;;;;;;;0.17;0.17;;;;;;;;;;5042585;28;20519;-69
2021/12/19 01:35:07;;;;;;;0.20;0.20;;;;;;;;;;5042419;28;20208;-69
2021/12/19 01:37:34;;;;;;;0.10;0.10;;;;;;;;;;5042353;28;20247;-69
2021/12/19 01:40:01;;;;;;;0.10;0.10;;;;;;;;;;5042808;28;20204;-70
2021/12/19 01:42:30;;;;;;;0.10;0.10;;;;;;;;;;5042776;28;20441;-70
2021/12/19 01:44:58;;;;;;;0.30;0.30;;;;;;;;;;5042336;28;20251;-69
2021/12/19 01:47:24;;;;;;;0.20;0.20;;;;;;;;;;5042368;28;20213;-70
2021/12/19 01:49:51;;;;;;;0.10;0.10;;;;;;;;;;5042903;28;20238;-69
2021/12/19 01:52:17;;;;;;;0.10;0.10;;;;;;;;;;5043833;28;20534;-69
2021/12/19 01:54:44;;;;;;;0.10;0.10;;;;;;;;;;5046433;28;20204;-68
2021/12/19 01:57:12;;;;;;;0.47;0.43;;;;;;;;;;5045946;28;20435;-70
2021/12/19 01:59:38;;;;;;;0.10;0.10;;;;;;;;;;5046679;28;20219;-69
2021/12/19 02:02:04;;;;;;;0.10;0.10;;;;;;;;;;5046823;28;20250;-69
2021/12/19 02:04:32;;;;;;;0.10;0.10;;;;;;;;;;5046363;28;20503;-69
2021/12/19 02:07:00;;;;;;;0.10;0.10;;;;;;;;;;5046431;28;20232;-70
2021/12/19 02:09:26;;;;;;;0.10;0.10;;;;;;;;;;5046391;28;20208;-70
2021/12/19 02:11:53;;;;;;;0.10;0.10;;;;;;;;;;5046280;28;20221;-69
2021/12/19 02:14:20;;;;;;;0.10;0.10;;;;;;;;;;5035566;28;20213;-69
2021/12/19 02:16:47;;;;;;;0.10;0.10;;;;;;;;;;5026616;28;20221;-68
2021/12/19 02:19:13;;;;;;;0.20;0.20;;;;;;;;;;5026483;28;20219;-69
2021/12/19 02:21:41;;;;;;;0.20;0.20;;;;;;;;;;5026212;28;20212;-70
2021/12/19 02:24:08;;;;;;;0.10;0.10;;;;;;;;;;5026283;28;20308;-69
2021/12/19 02:26:35;;;;;;;0.10;0.10;;;;;;;;;;5026168;28;20204;-69
2021/12/19 02:29:01;;;;;;;0.93;0.30;;;;;;;;;;5026054;28;20565;-68
2021/12/19 02:31:29;;;;;;;0.30;0.30;;;;;;;;;;5026223;28;20208;-68
2021/12/19 02:34:03;;;;;;;0.10;0.10;;;;;;;;;;5026030;28;20201;-75
2021/12/19 02:36:43;;;;;;;2.43;2.27;;;;;;;;;;5025703;28;20236;-76
2021/12/19 02:39:36;;;;;;;0.10;0.10;;;;;;;;;;5026032;28;20233;-76
2021/12/19 02:50:16;;;;;;;0.10;0.10;;;;;;;;;;5045773;28;20498;-76
2021/12/19 02:52:43;;;;;;;0.10;0.10;;;;;;;;;;5045883;28;20204;-75
2021/12/19 02:55:11;;;;;;;0.10;0.10;;;;;;;;;;5045787;28;20204;-75
2021/12/19 02:57:39;;;;;;;0.10;0.10;;;;;;;;;;5039735;28;20279;-76
2021/12/19 03:00:08;;;;;;;0.10;0.10;;;;;;;;;;5025583;28;20520;-76
2021/12/19 03:02:34;;;;;;;0.10;0.10;;;;;;;;;;5025914;28;20205;-76
2021/12/19 03:05:01;;;;;;;0.13;0.13;;;;;;;;;;5024050;28;20216;-76
2021/12/19 03:07:29;;;;;;;0.10;0.10;;;;;;;;;;5025788;28;20196;-76
2021/12/19 03:10:09;;;;;;;0.10;0.10;;;;;;;;;;5025690;28;20206;-75
2021/12/19 03:12:50;;;;;;;0.10;0.10;;;;;;;;;;5025633;28;20264;-75
2021/12/19 03:18:04;;;;;;;0.10;0.10;;;;;;;;;;5025334;28;20220;-76
2021/12/19 03:20:32;;;;;;;0.13;0.13;;;;;;;;;;5025215;28;20239;-75
2021/12/19 03:22:59;;;;;;;0.10;0.10;;;;;;;;;;5025524;28;20212;-76
2021/12/19 03:25:25;;;;;;;0.20;0.20;;;;;;;;;;5025065;28;20208;-74
2021/12/19 03:27:53;;;;;;;0.10;0.10;;;;;;;;;;5025331;28;20226;-76
2021/12/19 03:30:19;;;;;;;0.10;0.10;;;;;;;;;;5024961;28;20256;-75
2021/12/19 03:32:46;;;;;;;0.10;0.10;;;;;;;;;;5030118;28;20254;-76
2021/12/19 03:35:12;;;;;;;0.20;0.20;;;;;;;;;;5029711;28;20278;-76
2021/12/19 03:37:39;;;;;;;0.20;0.20;;;;;;;;;;5025080;28;20272;-75
2021/12/19 03:40:11;;;;;;;0.10;0.10;;;;;;;;;;5024719;28;20208;-76
2021/12/19 03:42:39;;;;;;;0.20;0.20;;;;;;;;;;5024580;28;20201;-75
2021/12/19 03:45:08;;;;;;;0.10;0.10;;;;;;;;;;5024555;28;20205;-76
2021/12/19 03:47:34;;;;;;;0.10;0.10;;;;;;;;;;5024482;28;20271;-75
2021/12/19 03:50:01;;;;;;;0.10;0.10;;;;;;;;;;5024855;28;20213;-75
2021/12/19 03:52:28;;;;;;;0.13;0.13;;;;;;;;;;5024745;28;20213;-75
2021/12/19 03:54:54;;;;;;;0.10;0.10;;;;;;;;;;5024691;28;20511;-76
2021/12/19 03:57:20;;;;;;;0.17;0.17;;;;;;;;;;5024747;28;20225;-76
2021/12/19 03:59:48;;;;;;;0.10;0.10;;;;;;;;;;5024605;28;20476;-76
2021/12/19 04:02:23;;;;;;;0.10;0.10;;;;;;;;;;5024756;28;20208;-75
2021/12/19 04:04:49;;;;;;;0.17;0.17;;;;;;;;;;5024452;28;20193;-75
2021/12/19 04:07:15;;;;;;;0.10;0.10;;;;;;;;;;5043336;28;20207;-75
2021/12/19 04:09:42;;;;;;;4.40;2.23;;;;;;;;;;5044100;28;20208;-76
2021/12/19 04:12:09;;;;;;;0.10;0.10;;;;;;;;;;5044330;28;20205;-76
2021/12/19 04:14:35;;;;;;;0.10;0.10;;;;;;;;;;5043757;28;20435;-76
2021/12/19 04:17:01;;;;;;;1.10;0.40;;;;;;;;;;5043926;28;20277;-76
2021/12/19 04:19:29;;;;;;;0.10;0.10;;;;;;;;;;5040364;28;20205;-76
2021/12/19 04:21:56;;;;;;;0.10;0.10;;;;;;;;;;5024270;28;20212;-76
2021/12/19 04:24:22;;;;;;;0.10;0.10;;;;;;;;;;5024145;28;20388;-76
2021/12/19 04:26:48;;;;;;;0.10;0.10;;;;;;;;;;5023897;28;20423;-77
2021/12/19 04:29:14;;;;;;;0.10;0.10;;;;;;;;;;5023931;28;20252;-76
2021/12/19 04:31:41;;;;;;;0.10;0.10;;;;;;;;;;5042970;28;20234;-77
2021/12/19 04:34:07;;;;;;;0.13;0.13;;;;;;;;;;5042853;28;20229;-76
2021/12/19 04:36:39;;;;;;;0.10;0.10;;;;;;;;;;5043088;28;20212;-76
2021/12/19 04:39:24;;;;;;;0.10;0.10;;;;;;;;;;5043674;28;20526;-76
2021/12/19 04:42:44;;;;;;;0.20;0.20;;;;;;;;;;5034000;28;20207;-76
2021/12/19 04:53:24;;;;;;;0.10;0.10;;;;;;;;;;5043425;28;20322;-76
2021/12/19 04:56:16;;;;;;;0.10;0.10;;;;;;;;;;5043369;28;20196;-76
2021/12/19 04:58:55;;;;;;;0.10;0.10;;;;;;;;;;5043015;28;20235;-75
2021/12/19 05:04:26;;;;;;;0.10;0.10;;;;;;;;;;5018057;28;20407;-75
2021/12/19 05:15:07;;;;;;;0.10;0.10;;;;;;;;;;4962826;28;20201;-75
2021/12/19 05:17:34;;;;;;;0.10;0.10;;;;;;;;;;5023319;28;20217;-75
2021/12/19 05:20:10;;;;;;;0.10;0.10;;;;;;;;;;5022663;28;20246;-76
2021/12/19 05:22:45;;;;;;;0.10;0.10;;;;;;;;;;5022950;28;20203;-76
2021/12/19 05:25:15;;;;;;;0.10;0.10;;;;;;;;;;5023423;28;20201;-76
2021/12/19 05:27:42;;;;;;;0.10;0.10;;;;;;;;;;5022649;28;20269;-76
2021/12/19 05:30:08;;;;;;;0.20;0.20;;;;;;;;;;5023216;28;20208;-76
2021/12/19 05:32:35;;;;;;;0.10;0.10;;;;;;;;;;5033310;28;20204;-70
2021/12/19 05:35:01;;;;;;;0.10;0.10;;;;;;;;;;5042778;28;20261;-70
2021/12/19 05:45:46;;;;;;;0.10;0.10;;;;;;;;;;5023023;28;20195;-70
2021/12/19 05:48:12;;;;;;;0.10;0.10;;;;;;;;;;5022442;28;20204;-70
2021/12/19 05:50:39;;;;;;;0.13;0.13;;;;;;;;;;5022756;28;20212;-69
2021/12/19 05:53:05;;;;;;;0.10;0.10;;;;;;;;;;5022934;28;20546;-69
2021/12/19 05:55:32;;;;;;;0.10;0.10;;;;;;;;;;5022851;28;20301;-68
2021/12/19 05:57:59;;;;;;;0.53;0.53;;;;;;;;;;5022999;28;20232;-70
2021/12/19 06:00:25;;;;;;;0.10;0.10;;;;;;;;;;5022764;28;20209;-70
2021/12/19 06:02:52;;;;;;;0.20;0.20;;;;;;;;;;5022547;28;20270;-69
2021/12/19 06:05:18;;;;;;;0.10;0.10;;;;;;;;;;5038486;28;20243;-70
2021/12/19 06:07:44;;;;;;;0.10;0.10;;;;;;;;;;5042733;28;20208;-70
2021/12/19 06:10:11;;;;;;;0.10;0.10;;;;;;;;;;5042744;28;20211;-70
2021/12/19 06:12:38;;;;;;;0.10;0.10;;;;;;;;;;5042657;28;20208;-69
2021/12/19 06:15:08;;;;;;;0.10;0.10;;;;;;;;;;5042608;28;20207;-69
2021/12/19 06:17:34;;;;;;;0.10;0.10;;;;;;;;;;5042741;28;20228;-69
2021/12/19 06:20:00;;;;;;;0.10;0.10;;;;;;;;;;5042552;28;20208;-68
2021/12/19 06:22:26;;;;;;;0.10;0.10;;;;;;;;;;5042510;28;20211;-69
2021/12/19 06:24:52;;;;;;;0.20;0.20;;;;;;;;;;5042636;28;20231;-69
2021/12/19 06:27:19;;;;;;;0.10;0.10;;;;;;;;;;5042154;28;20200;-69
2021/12/19 06:29:45;;;;;;;0.10;0.10;;;;;;;;;;5042453;28;20376;-70
2021/12/19 06:32:13;;;;;;;0.10;0.10;;;;;;;;;;5042425;28;20638;-70
2021/12/19 06:34:39;;;;;;;0.10;0.10;;;;;;;;;;5042452;28;20273;-69
2021/12/19 06:37:09;;;;;;;13.93;0.57;;;;;;;;;;5042433;28;20205;-70
2021/12/19 06:39:36;;;;;;;0.10;0.10;;;;;;;;;;5045111;28;20214;-70
2021/12/19 06:42:03;;;;;;;0.10;0.10;;;;;;;;;;5045953;28;20522;-70
2021/12/19 06:44:29;;;;;;;0.10;0.10;;;;;;;;;;5045900;28;20254;-70
2021/12/19 06:46:55;;;;;;;0.63;0.63;;;;;;;;;;5044969;28;20306;-70
2021/12/19 06:49:23;;;;;;;0.20;0.20;;;;;;;;;;5045792;28;20254;-70
2021/12/19 06:51:49;;;;;;;0.10;0.10;;;;;;;;;;5039448;28;20254;-70
2021/12/19 06:54:15;;;;;;;0.10;0.10;;;;;;;;;;5025985;28;20205;-70
2021/12/19 06:56:41;;;;;;;0.10;0.10;;;;;;;;;;5037096;28;20219;-70
2021/12/19 06:59:08;;;;;;;0.10;0.10;;;;;;;;;;5045280;28;20270;-69
2021/12/19 07:01:36;;;;;;;0.10;0.10;;;;;;;;;;5040993;28;20208;-70
2021/12/19 07:04:02;;;;;;;0.10;0.10;;;;;;;;;;5045008;28;20246;-70
2021/12/19 07:06:30;;;;;;;0.10;0.10;;;;;;;;;;5045000;28;20247;-69
2021/12/19 07:08:56;;;;;;;0.10;0.10;;;;;;;;;;5044885;28;20201;-72
2021/12/19 07:11:22;;;;;;;0.10;0.10;;;;;;;;;;5045110;28;20272;-69
2021/12/19 07:13:49;;;;;;;0.30;0.30;;;;;;;;;;5030265;28;20267;-69
2021/12/19 07:16:15;;;;;;;0.10;0.10;;;;;;;;;;5032692;28;20403;-69
2021/12/19 07:18:42;;;;;;;0.10;0.10;;;;;;;;;;5044849;28;20275;-70
2021/12/19 07:21:09;;;;;;;0.10;0.10;;;;;;;;;;5045013;28;20457;-71
2021/12/19 07:23:36;;;;;;;0.13;0.13;;;;;;;;;;5044894;28;20253;-69
2021/12/19 07:26:03;;;;;;;0.10;0.10;;;;;;;;;;5045170;28;20213;-70
2021/12/19 07:28:30;;;;;;;0.20;0.20;;;;;;;;;;5040644;28;20206;-69
2021/12/19 07:30:57;;;;;;;0.10;0.10;;;;;;;;;;5025310;28;20263;-71
2021/12/19 07:33:23;;;;;;;0.10;0.10;;;;;;;;;;5035612;28;20267;-69
2021/12/19 07:35:50;;;;;;;0.10;0.10;;;;;;;;;;5044040;28;20204;-70
2021/12/19 07:38:23;;;;;;;0.10;0.10;;;;;;;;;;5044851;28;20291;-72
2021/12/19 07:40:52;;;;;;;0.10;0.10;;;;;;;;;;5044692;28;20204;-72
2021/12/19 07:43:19;;;;;;;0.10;0.10;;;;;;;;;;5044929;28;20218;-71
2021/12/19 07:45:45;;;;;;;0.10;0.10;;;;;;;;;;5044651;28;20214;-70
2021/12/19 07:48:11;;;;;;;0.10;0.10;;;;;;;;;;5044307;28;20216;-71
2021/12/19 07:50:38;;;;;;;0.10;0.10;;;;;;;;;;5043429;28;20502;-71
2021/12/19 07:53:04;;;;;;;0.10;0.10;;;;;;;;;;5038639;28;20224;-71
2021/12/19 07:55:31;;;;;;;0.10;0.10;;;;;;;;;;5032683;28;20331;-70
2021/12/19 07:57:58;;;;;;;0.10;0.10;;;;;;;;;;5036930;28;20231;-72
2021/12/19 08:00:24;;;;;;;0.10;0.10;;;;;;;;;;5029310;28;20215;-71
2021/12/19 08:02:51;;;;;;;0.20;0.20;;;;;;;;;;5033647;28;20211;-72
2021/12/19 08:05:18;;;;;;;0.10;0.10;;;;;;;;;;5027867;28;20470;-72
2021/12/19 08:07:47;;;;;;;0.10;0.10;;;;;;;;;;5034861;28;20248;-72
2021/12/19 08:11:39;;;;;;;0.10;0.10;;;;;;;;;;5031053;28;20209;-72
2021/12/19 08:13:01;;;;;;;0.10;0.10;;;;;;;;;;5034720;28;20227;-71
2021/12/19 08:15:27;;;;;;;0.10;0.10;;;;;;;;;;5024243;28;20204;-71
2021/12/19 08:17:54;;;;;;;0.10;0.10;;;;;;;;;;5034028;28;20267;-71
2021/12/19 08:20:20;;;;;;;0.10;0.10;;;;;;;;;;5032189;28;20499;-71
2021/12/19 08:22:48;;;;;;;0.10;0.10;;;;;;;;;;5034769;28;20204;-71
2021/12/19 08:25:14;;;;;;;0.17;0.17;;;;;;;;;;5031064;28;20212;-72
2021/12/19 08:27:41;;;;;;;0.10;0.10;;;;;;;;;;5032174;28;20204;-73
2021/12/19 08:30:10;;;;;;;0.10;0.10;;;;;;;;;;5031891;28;20207;-72
2021/12/19 08:32:36;;;;;;;0.10;0.10;;;;;;;;;;5034115;28;20263;-72
2021/12/19 08:35:03;;;;;;;0.10;0.10;;;;;;;;;;5031926;28;20209;-72
2021/12/19 08:37:30;;;;;;;0.20;0.20;;;;;;;;;;5029725;28;20534;-72
2021/12/19 08:39:56;;;;;;;0.10;0.10;;;;;;;;;;5028494;28;20227;-72
2021/12/19 08:42:22;;;;;;;0.10;0.10;;;;;;;;;;5028075;28;20200;-71
2021/12/19 08:44:49;;;;;;;0.10;0.10;;;;;;;;;;5028683;28;20216;-71
2021/12/19 08:47:16;;;;;;;0.10;0.10;;;;;;;;;;5029003;28;20200;-71
2021/12/19 08:49:43;;;;;;;0.10;0.10;;;;;;;;;;5037780;28;20269;-72
2021/12/19 08:52:10;;;;;;;0.10;0.10;;;;;;;;;;5025959;28;20208;-72
2021/12/19 08:54:36;;;;;;;0.20;0.20;;;;;;;;;;5032063;28;20208;-71
2021/12/19 08:57:03;;;;;;;0.10;0.10;;;;;;;;;;5023208;28;20206;-72
2021/12/19 08:59:29;;;;;;;0.13;0.13;;;;;;;;;;5033376;28;20221;-71
2021/12/19 09:01:58;;;;;;;0.10;0.10;;;;;;;;;;5034675;28;20230;-71
2021/12/19 09:04:25;;;;;;;0.20;0.20;;;;;;;;;;5028280;28;20239;-72
2021/12/19 09:06:52;;;;;;;0.10;0.10;;;;;;;;;;5028290;28;20247;-73
2021/12/19 09:09:18;;;;;;;0.10;0.10;;;;;;;;;;5023072;28;20368;-72
2021/12/19 09:11:44;;;;;;;0.10;0.10;;;;;;;;;;5025788;28;20401;-71
2021/12/19 09:14:11;;;;;;;0.10;0.10;;;;;;;;;;5033931;28;20212;-73
2021/12/19 09:16:37;;;;;;;0.10;0.10;;;;;;;;;;5029258;28;20211;-72
2021/12/19 09:19:03;;;;;;;0.10;0.10;;;;;;;;;;5042235;28;20604;-71
2021/12/19 09:21:31;;;;;;;0.10;0.10;;;;;;;;;;5040201;28;20503;-72
2021/12/19 09:23:57;;;;;;;0.20;0.20;;;;;;;;;;5028137;28;20532;-71
2021/12/19 09:26:23;;;;;;;0.10;0.10;;;;;;;;;;5038541;28;20238;-72
2021/12/19 09:28:49;;;;;;;0.10;0.10;;;;;;;;;;5035673;28;20197;-72
2021/12/19 09:31:16;;;;;;;0.10;0.10;;;;;;;;;;5039365;28;20216;-72
2021/12/19 09:33:42;;;;;;;0.20;0.20;;;;;;;;;;5040654;28;20538;-72
2021/12/19 09:36:08;;;;;;;0.10;0.10;;;;;;;;;;5040956;28;20215;-72
2021/12/19 09:38:36;;;;;;;0.10;0.10;;;;;;;;;;5035590;28;20231;-71
2021/12/19 09:41:12;;;;;;;1.07;1.07;;;;;;;;;;5035588;28;20226;-71
2021/12/19 09:43:44;;;;;;;0.10;0.10;;;;;;;;;;5030756;28;20199;-71
2021/12/19 09:46:12;;;;;;;0.20;0.20;;;;;;;;;;5032924;28;20205;-72
2021/12/19 09:48:39;;;;;;;0.17;0.17;;;;;;;;;;5042822;28;20322;-73
2021/12/19 09:51:05;;;;;;;0.10;0.10;;;;;;;;;;5043139;28;20249;-72
2021/12/19 09:53:31;;;;;;;0.10;0.10;;;;;;;;;;5042879;28;20563;-74
2021/12/19 09:55:59;;;;;;;0.10;0.10;;;;;;;;;;5024470;28;20273;-72
2021/12/19 09:58:25;;;;;;;0.10;0.10;;;;;;;;;;5022997;28;20270;-71
2021/12/19 10:00:53;;;;;;;0.10;0.10;;;;;;;;;;5023044;28;20209;-72
2021/12/19 10:03:19;;;;;;;0.63;0.63;;;;;;;;;;5030097;28;20338;-69
2021/12/19 10:05:46;;;;;;;0.10;0.10;;;;;;;;;;5039288;28;20436;-73
2021/12/19 10:08:12;;;;;;;0.10;0.10;;;;;;;;;;5036712;28;20230;-69
2021/12/19 10:10:47;;;;;;;0.10;0.10;;;;;;;;;;5041407;28;20428;-71
2021/12/19 10:13:15;;;;;;;0.17;0.17;;;;;;;;;;5037266;28;20206;-69
2021/12/19 10:15:42;;;;;;;0.10;0.10;;;;;;;;;;5046422;28;20211;-67
2021/12/19 10:18:09;;;;;;;0.10;0.10;;;;;;;;;;5046339;28;20230;-68
2021/12/19 10:20:43;;;;;;;0.20;0.20;;;;;;;;;;5046310;28;20205;-70
2021/12/19 10:23:10;;;;;;;0.20;0.20;;;;;;;;;;5046116;28;20203;-68
2021/12/19 10:25:36;;;;;;;0.10;0.10;;;;;;;;;;5045213;28;20278;-69
2021/12/19 10:28:03;;;;;;;0.20;0.20;;;;;;;;;;5046006;28;20208;-71
2021/12/19 10:30:32;;;;;;;0.10;0.10;;;;;;;;;;5044272;28;20250;-68
2021/12/19 10:32:59;;;;;;;0.10;0.10;;;;;;;;;;5039746;28;20247;-69
2021/12/19 10:35:27;;;;;;;0.10;0.10;;;;;;;;;;5045201;28;20250;-68
2021/12/19 10:37:54;;;;;;;0.10;0.10;;;;;;;;;;5045374;28;20212;-68
2021/12/19 10:40:20;;;;;;;0.10;0.10;;;;;;;;;;5045275;28;20234;-68
2021/12/19 10:42:48;;;;;;;0.10;0.10;;;;;;;;;;5045534;28;20201;-70
2021/12/19 10:45:33;;;;;;;0.10;0.10;;;;;;;;;;5030175;28;20403;-68
2021/12/19 10:48:17;;;;;;;0.30;0.30;;;;;;;;;;5038324;28;20496;-68
2021/12/19 10:50:46;;;;;;;0.10;0.10;;;;;;;;;;5044674;28;20207;-69
2021/12/19 10:53:13;;;;;;;0.10;0.10;;;;;;;;;;5035766;28;20289;-70
2021/12/19 10:55:40;;;;;;;0.10;0.10;;;;;;;;;;5042131;28;20229;-70
2021/12/19 10:58:17;;;;;;;0.10;0.10;;;;;;;;;;5045133;28;20210;-76
2021/12/19 11:00:54;;;;;;;0.10;0.10;;;;;;;;;;5036713;28;20429;-73
2021/12/19 11:03:32;;;;;;;0.10;0.10;;;;;;;;;;5033256;28;20223;-72
2021/12/19 11:05:59;;;;;;;0.33;0.33;;;;;;;;;;5038579;28;20239;-71
2021/12/19 11:08:30;;;;;;;0.10;0.10;;;;;;;;;;5035102;28;20255;-72
2021/12/19 11:10:57;;;;;;;0.10;0.10;;;;;;;;;;5037796;28;20201;-72
2021/12/19 11:13:23;;;;;;;0.10;0.10;;;;;;;;;;5041905;28;20200;-69
2021/12/19 11:15:50;;;;;;;0.10;0.10;;;;;;;;;;5039584;28;20231;-70
2021/12/19 11:18:16;;;;;;;0.10;0.10;;;;;;;;;;5040860;28;20207;-69
2021/12/19 11:20:44;;;;;;;0.10;0.10;;;;;;;;;;5039204;28;20266;-73
2021/12/19 11:23:10;;;;;;;0.10;0.10;;;;;;;;;;5035673;28;20210;-73
2021/12/19 11:25:37;;;;;;;0.10;0.10;;;;;;;;;;5027600;28;20205;-74
2021/12/19 11:28:03;;;;;;;0.10;0.10;;;;;;;;;;5028118;28;20213;-74
2021/12/19 11:30:30;;;;;;;0.10;0.10;;;;;;;;;;5032783;28;20413;-75
2021/12/19 11:33:03;;;;;;;0.20;0.20;;;;;;;;;;5034215;28;20220;-75
2021/12/19 11:35:31;;;;;;;0.10;0.10;;;;;;;;;;5036357;28;20200;-73
2021/12/19 11:38:00;;;;;;;0.20;0.20;;;;;;;;;;5025004;28;20232;-72
2021/12/19 11:40:31;;;;;;;0.10;0.10;;;;;;;;;;5035635;28;20325;-77
2021/12/19 11:43:01;;;;;;;0.10;0.10;;;;;;;;;;5032811;28;20562;-73
2021/12/19 11:45:35;;;;;;;0.10;0.10;;;;;;;;;;5028200;28;20445;-72
2021/12/19 11:48:03;;;;;;;0.10;0.10;;;;;;;;;;5032067;28;20197;-71
2021/12/19 11:50:30;;;;;;;0.10;0.10;;;;;;;;;;5038778;28;20488;-71
2021/12/19 11:52:58;;;;;;;0.10;0.10;;;;;;;;;;5036292;28;20213;-72
2021/12/19 11:55:28;;;;;;;0.10;0.10;;;;;;;;;;5036037;28;20214;-71
2021/12/19 11:58:13;;;;;;;0.10;0.10;;;;;;;;;;5027043;28;20270;-71
2021/12/19 12:00:40;;;;;;;0.10;0.10;;;;;;;;;;5030080;28;20228;-71
2021/12/19 12:03:26;;;;;;;0.20;0.20;;;;;;;;;;5033473;28;20205;-71
2021/12/19 12:05:54;;;;;;;0.13;0.13;;;;;;;;;;5029051;28;20228;-72
2021/12/19 12:08:20;;;;;;;0.10;0.10;;;;;;;;;;5028923;28;20549;-72
2021/12/19 12:11:05;;;;;;;0.10;0.10;;;;;;;;;;5031696;28;20201;-75
2021/12/19 12:13:34;;;;;;;0.10;0.10;;;;;;;;;;5044488;28;20205;-73
2021/12/19 12:16:24;;;;;;;0.10;0.10;;;;;;;;;;5044067;28;20235;-71
2021/12/19 12:18:54;;;;;;;0.10;0.10;;;;;;;;;;5044319;28;20223;-75
2021/12/19 12:21:27;;;;;;;0.10;0.10;;;;;;;;;;5044297;28;20209;-72
2021/12/19 12:23:55;;;;;;;0.10;0.10;;;;;;;;;;5044114;28;20253;-73
2021/12/19 12:26:22;;;;;;;0.10;0.10;;;;;;;;;;5037922;28;20495;-72
2021/12/19 12:28:50;;;;;;;0.10;0.10;;;;;;;;;;5025198;28;20275;-72
2021/12/19 12:31:16;;;;;;;0.10;0.10;;;;;;;;;;5026727;28;20209;-72
2021/12/19 12:33:42;;;;;;;0.13;0.13;;;;;;;;;;5037608;28;20254;-72
2021/12/19 12:36:09;;;;;;;0.10;0.10;;;;;;;;;;5043006;28;20231;-74
2021/12/19 12:38:35;;;;;;;0.13;0.13;;;;;;;;;;5034656;28;20204;-73
2021/12/19 12:41:06;;;;;;;0.10;0.10;;;;;;;;;;5038187;28;20228;-71
2021/12/19 12:43:33;;;;;;;0.13;0.13;;;;;;;;;;5043426;28;20268;-72
2021/12/19 12:46:03;;;;;;;0.10;0.10;;;;;;;;;;5043353;28;20208;-72
2021/12/19 12:48:31;;;;;;;0.10;0.10;;;;;;;;;;5043592;28;20406;-71
2021/12/19 12:50:58;;;;;;;0.57;0.57;;;;;;;;;;5043259;28;20204;-72
2021/12/19 12:53:28;;;;;;;0.10;0.10;;;;;;;;;;5043308;28;20243;-70
2021/12/19 12:56:01;;;;;;;0.10;0.10;;;;;;;;;;5043191;28;20254;-71
2021/12/19 12:58:27;;;;;;;0.10;0.10;;;;;;;;;;5043098;28;20193;-70
2021/12/19 13:01:08;;;;;;;0.10;0.10;;;;;;;;;;5043114;28;20228;-71
2021/12/19 13:03:35;;;;;;;0.10;0.10;;;;;;;;;;5042826;28;20207;-70
2021/12/19 13:06:02;;;;;;;0.10;0.10;;;;;;;;;;5043207;28;20232;-71
2021/12/19 13:08:28;;;;;;;0.10;0.10;;;;;;;;;;5043093;28;20247;-71
2021/12/19 13:10:55;;;;;;;0.17;0.17;;;;;;;;;;5043101;28;20212;-72
2021/12/19 13:13:25;;;;;;;0.10;0.10;;;;;;;;;;5039312;28;20454;-72
2021/12/19 13:15:51;;;;;;;0.10;0.10;;;;;;;;;;5042553;28;20429;-76
2021/12/19 13:18:17;;;;;;;0.10;0.10;;;;;;;;;;5042831;28;20208;-71
2021/12/19 13:20:45;;;;;;;0.10;0.10;;;;;;;;;;5043095;28;20223;-71
2021/12/19 13:23:11;;;;;;;0.10;0.10;;;;;;;;;;5031609;28;20211;-72
2021/12/19 13:25:41;;;;;;;0.10;0.10;;;;;;;;;;5039190;28;20466;-69
2021/12/19 13:28:10;;;;;;;0.57;0.57;;;;;;;;;;5028507;28;20200;-70
2021/12/19 13:30:36;;;;;;;0.10;0.10;;;;;;;;;;5027304;28;20418;-71
2021/12/19 13:33:04;;;;;;;0.10;0.10;;;;;;;;;;5027721;28;20523;-69
2021/12/19 13:35:32;;;;;;;0.10;0.10;;;;;;;;;;5027355;28;20387;-70
2021/12/19 13:38:01;;;;;;;0.10;0.10;;;;;;;;;;5034783;28;20207;-66
2021/12/19 13:40:29;;;;;;;0.60;0.60;;;;;;;;;;5029692;28;20273;-65
2021/12/19 13:42:56;;;;;;;0.40;0.40;;;;;;;;;;5040949;28;20227;-66
2021/12/19 13:45:35;;;;;;;0.10;0.10;;;;;;;;;;5042407;28;20200;-66
2021/12/19 13:48:03;;;;;;;0.10;0.10;;;;;;;;;;5037560;28;20215;-65
2021/12/19 13:50:31;;;;;;;0.10;0.10;;;;;;;;;;5043824;28;20206;-65
2021/12/19 13:52:57;;;;;;;0.47;0.47;;;;;;;;;;5046406;28;20204;-64
2021/12/19 13:55:24;;;;;;;0.10;0.10;;;;;;;;;;5046340;28;20216;-65
2021/12/19 13:58:03;;;;;;;0.10;0.10;;;;;;;;;;5046330;28;20251;-74
2021/12/19 14:00:33;;;;;;;0.10;0.10;;;;;;;;;;5039782;28;20212;-79
2021/12/19 14:02:59;;;;;;;0.10;0.10;;;;;;;;;;5037621;28;20259;-76
2021/12/19 14:05:33;;;;;;;0.10;0.10;;;;;;;;;;5031385;28;20247;-74
2021/12/19 14:07:59;;;;;;;0.20;0.20;;;;;;;;;;5038797;28;20232;-74
2021/12/19 14:10:27;;;;;;;0.10;0.10;;;;;;;;;;5046294;28;20282;-69
2021/12/19 14:13:05;;;;;;;0.10;0.10;;;;;;;;;;5037649;28;20496;-76
2021/12/19 14:15:32;;;;;;;0.10;0.10;;;;;;;;;;5028064;28;20208;-73
2021/12/19 14:17:58;;;;;;;0.10;0.10;;;;;;;;;;5038666;28;20296;-71
2021/12/19 14:20:32;;;;;;;0.10;0.10;;;;;;;;;;5039154;28;20239;-74
2021/12/19 14:23:13;;;;;;;0.10;0.10;;;;;;;;;;5034287;28;20203;-71
2021/12/19 14:25:41;;;;;;;0.10;0.10;;;;;;;;;;5038466;28;20203;-68
2021/12/19 14:28:16;;;;;;;0.10;0.10;;;;;;;;;;5035411;28;20235;-68
2021/12/19 14:30:55;;;;;;;0.10;0.10;;;;;;;;;;5031443;28;20469;-66
2021/12/19 14:33:28;;;;;;;0.10;0.10;;;;;;;;;;5036732;28;20208;-67
2021/12/19 14:35:54;;;;;;;0.10;0.10;;;;;;;;;;5042857;28;20205;-73
2021/12/19 14:38:22;;;;;;;0.10;0.10;;;;;;;;;;5028996;28;20216;-74
2021/12/19 14:40:50;;;;;;;0.10;0.10;;;;;;;;;;5036365;28;20550;-70
2021/12/19 14:43:17;;;;;;;0.10;0.10;;;;;;;;;;5038484;28;20401;-74
2021/12/19 14:45:45;;;;;;;0.10;0.10;;;;;;;;;;5045560;28;20219;-74
2021/12/19 14:48:13;;;;;;;0.10;0.10;;;;;;;;;;5044748;28;20215;-74
2021/12/19 14:50:47;;;;;;;0.10;0.10;;;;;;;;;;5044954;28;20208;-71
2021/12/19 14:53:20;;;;;;;0.10;0.10;;;;;;;;;;5046508;28;20231;-77
2021/12/19 14:55:48;;;;;;;0.10;0.10;;;;;;;;;;5035721;28;20393;-74
2021/12/19 14:58:16;;;;;;;0.10;0.10;;;;;;;;;;5025936;28;20209;-74
2021/12/19 15:00:43;;;;;;;0.10;0.10;;;;;;;;;;5042812;28;20589;-75
2021/12/19 15:03:10;;;;;;;0.10;0.10;;;;;;;;;;5045527;28;20227;-75
2021/12/19 15:05:38;;;;;;;0.20;0.20;;;;;;;;;;5045416;28;20236;-72
2021/12/19 15:08:08;;;;;;;0.10;0.10;;;;;;;;;;5045752;28;20522;-71
2021/12/19 15:10:35;;;;;;;0.10;0.10;;;;;;;;;;5045666;28;20389;-72
2021/12/19 15:13:01;;;;;;;0.10;0.10;;;;;;;;;;5045663;28;20205;-75
2021/12/19 15:15:28;;;;;;;0.17;0.17;;;;;;;;;;5045576;28;20251;-74
2021/12/19 15:17:55;;;;;;;0.10;0.10;;;;;;;;;;5045404;28;20208;-74
2021/12/19 15:20:21;;;;;;;0.10;0.10;;;;;;;;;;5045458;28;20277;-76
2021/12/19 15:22:47;;;;;;;0.13;0.13;;;;;;;;;;5043721;28;20204;-71
2021/12/19 15:25:14;;;;;;;0.10;0.10;;;;;;;;;;5039815;28;20411;-71
2021/12/19 15:27:42;;;;;;;0.10;0.10;;;;;;;;;;5039298;28;20216;-74
2021/12/19 15:30:10;;;;;;;0.20;0.20;;;;;;;;;;5037582;28;20205;-71
2021/12/19 15:32:38;;;;;;;0.10;0.10;;;;;;;;;;5040561;28;20201;-73